Time;durP1;ratioP1;P1;durP2;ratioP2;P2;SDS_P1;SDS_P2;PMS_P1;PMS_P2;Temp;Humidity;BMP_temperature;BMP_pressure;BME280_temperature;BME280_humidity;BME280_pressure;Samples;Min_cycle;Max_cycle;Signal;HPM_P1;HPM_P2
2020/12/27 00:00:39;;;;;;;8.37;5.63;;;-0.90;99.90;;;;;;5107750;28;20607;-76
2020/12/27 00:03:06;;;;;;;10.87;5.40;;;-0.90;99.90;;;;;;5110216;28;20913;-76
2020/12/27 00:05:33;;;;;;;9.30;5.83;;;-0.90;99.90;;;;;;5106924;28;20476;-77
2020/12/27 00:07:59;;;;;;;9.47;6.23;;;-0.90;99.90;;;;;;5106758;28;20451;-75
2020/12/27 00:10:27;;;;;;;8.53;5.67;;;-0.80;99.90;;;;;;5101843;28;20441;-77
2020/12/27 00:12:53;;;;;;;11.03;6.20;;;-0.90;99.90;;;;;;5107899;28;20446;-75
2020/12/27 00:15:19;;;;;;;7.57;6.23;;;-0.90;99.90;;;;;;5107768;28;20493;-74
2020/12/27 00:17:46;;;;;;;8.93;5.90;;;-1.00;99.90;;;;;;5109216;28;20913;-77
2020/12/27 00:20:12;;;;;;;7.07;5.90;;;-1.00;99.90;;;;;;5111641;28;20468;-76
2020/12/27 00:22:39;;;;;;;7.20;4.93;;;-0.90;99.90;;;;;;5111348;28;20546;-76
2020/12/27 00:25:05;;;;;;;7.10;5.60;;;-0.90;99.90;;;;;;5111476;28;20484;-77
2020/12/27 00:27:32;;;;;;;7.47;5.80;;;-0.90;99.90;;;;;;5110386;28;20472;-76
2020/12/27 00:29:59;;;;;;;5.57;4.83;;;-0.90;99.90;;;;;;5111757;27;20879;-76
2020/12/27 00:32:27;;;;;;;5.90;4.43;;;-0.90;99.90;;;;;;5111468;28;20472;-77
2020/12/27 00:34:54;;;;;;;8.47;6.13;;;-0.90;99.90;;;;;;5110283;28;20848;-76
2020/12/27 00:37:21;;;;;;;6.70;5.40;;;-0.90;99.90;;;;;;5105239;28;20441;-76
2020/12/27 00:39:47;;;;;;;7.03;5.33;;;-0.90;99.90;;;;;;5108067;28;20548;-76
2020/12/27 00:42:14;;;;;;;11.03;6.00;;;-0.90;99.90;;;;;;5111361;28;21180;-74
2020/12/27 00:44:41;;;;;;;8.13;5.70;;;-0.90;99.90;;;;;;5111137;28;20449;-75
2020/12/27 00:47:08;;;;;;;7.50;5.70;;;-0.90;99.90;;;;;;5110239;28;20463;-76
2020/12/27 00:49:34;;;;;;;7.43;5.70;;;-0.90;99.90;;;;;;5110709;28;20533;-75
2020/12/27 00:52:01;;;;;;;6.27;5.40;;;-0.90;99.90;;;;;;5110847;28;20631;-77
2020/12/27 00:54:27;;;;;;;6.47;5.17;;;-0.90;99.90;;;;;;5110648;28;20548;-76
2020/12/27 00:56:53;;;;;;;9.27;5.50;;;-0.90;99.90;;;;;;5109646;28;20467;-76
2020/12/27 00:59:20;;;;;;;7.97;6.13;;;-0.90;99.90;;;;;;5110884;28;20555;-77
2020/12/27 01:01:48;;;;;;;7.63;5.20;;;-0.90;99.90;;;;;;5110283;28;20449;-76
2020/12/27 01:04:14;;;;;;;7.73;5.80;;;-0.90;99.90;;;;;;5110645;28;20480;-73
2020/12/27 01:06:41;;;;;;;7.17;5.50;;;-0.80;99.90;;;;;;5109338;28;20473;-75
2020/12/27 01:09:07;;;;;;;8.07;5.70;;;-0.90;99.90;;;;;;5110621;28;20465;-76
2020/12/27 01:11:33;;;;;;;6.77;5.30;;;-0.90;99.90;;;;;;5110267;28;20874;-75
2020/12/27 01:14:00;;;;;;;6.47;5.20;;;-0.90;99.90;;;;;;5110818;28;20477;-75
2020/12/27 01:16:26;;;;;;;6.17;5.40;;;-0.90;99.90;;;;;;5109185;28;20468;-77
2020/12/27 01:18:53;;;;;;;8.17;6.03;;;-0.90;99.90;;;;;;5110768;28;20490;-77
2020/12/27 01:21:27;;;;;;;11.80;5.73;;;-0.90;99.90;;;;;;5103736;28;20457;-76
2020/12/27 01:23:53;;;;;;;9.50;6.00;;;-0.90;99.90;;;;;;5108869;28;20569;-77
2020/12/27 01:26:27;;;;;;;9.07;5.63;;;-1.00;99.90;;;;;;5107657;28;20453;-76
2020/12/27 01:28:54;;;;;;;8.13;6.47;;;-1.00;99.90;;;;;;5110486;28;20479;-77
2020/12/27 01:31:20;;;;;;;8.73;5.23;;;-1.00;99.90;;;;;;5110986;28;20531;-76
2020/12/27 01:33:47;;;;;;;9.80;6.03;;;-1.00;99.90;;;;;;5109888;28;20445;-76
2020/12/27 01:36:14;;;;;;;7.83;6.00;;;-1.00;99.90;;;;;;5109592;28;20590;-75
2020/12/27 01:38:41;;;;;;;9.13;5.63;;;-1.10;99.90;;;;;;5110015;28;20544;-77
2020/12/27 01:41:07;;;;;;;6.83;5.47;;;-1.10;99.90;;;;;;5111693;27;20444;-76
2020/12/27 01:43:33;;;;;;;6.97;5.40;;;-1.10;99.90;;;;;;5112057;27;20533;-75
2020/12/27 01:46:00;;;;;;;9.03;6.50;;;-1.10;99.90;;;;;;5107468;28;20461;-75
2020/12/27 01:48:27;;;;;;;8.60;6.20;;;-1.10;99.90;;;;;;5109596;28;20548;-77
2020/12/27 01:50:54;;;;;;;10.50;6.13;;;-1.10;99.90;;;;;;5110026;28;20449;-75
2020/12/27 01:53:21;;;;;;;8.43;6.43;;;-1.10;99.90;;;;;;5109928;28;20509;-77
2020/12/27 01:55:47;;;;;;;10.52;7.20;;;-1.10;99.90;;;;;;5107447;28;20466;-76
2020/12/27 01:58:16;;;;;;;10.30;7.00;;;-1.00;99.90;;;;;;5117832;28;20258;-75
2020/12/27 02:00:43;;;;;;;8.97;6.40;;;-1.00;99.90;;;;;;5114379;28;20493;-76
2020/12/27 02:03:10;;;;;;;12.67;6.57;;;-1.00;99.90;;;;;;5115744;28;20585;-77
2020/12/27 02:05:36;;;;;;;9.10;5.67;;;-0.90;99.90;;;;;;5115288;28;20469;-76
2020/12/27 02:08:03;;;;;;;11.00;6.77;;;-1.00;99.90;;;;;;5116095;28;20520;-76
2020/12/27 02:10:31;;;;;;;7.47;5.87;;;-1.00;99.90;;;;;;5114915;28;20946;-76
2020/12/27 02:12:58;;;;;;;7.90;5.50;;;-0.90;99.90;;;;;;5115688;28;20529;-77
2020/12/27 02:15:24;;;;;;;8.17;5.47;;;-0.80;99.90;;;;;;5116853;28;20540;-76
2020/12/27 02:17:50;;;;;;;6.33;5.40;;;-0.80;99.90;;;;;;5119872;28;20577;-75
2020/12/27 02:20:17;;;;;;;8.40;6.23;;;-0.80;99.90;;;;;;5116981;28;20540;-75
2020/12/27 02:22:43;;;;;;;8.50;5.77;;;-0.80;99.90;;;;;;5116476;28;20518;-76
2020/12/27 02:25:11;;;;;;;7.50;5.90;;;-0.70;99.90;;;;;;5115825;28;21024;-75
2020/12/27 02:27:37;;;;;;;8.07;5.47;;;-0.70;99.90;;;;;;5114794;28;20847;-76
2020/12/27 02:30:05;;;;;;;10.00;6.43;;;-0.70;99.90;;;;;;5117022;28;20612;-76
2020/12/27 02:32:32;;;;;;;12.33;5.80;;;-0.70;99.90;;;;;;5122400;28;20471;-76
2020/12/27 02:34:59;;;;;;;7.77;5.53;;;-0.70;99.90;;;;;;5122312;28;20473;-75
2020/12/27 02:37:25;;;;;;;8.13;6.23;;;-0.70;99.90;;;;;;5122762;28;20473;-74
2020/12/27 02:39:51;;;;;;;9.20;5.40;;;-0.70;99.90;;;;;;5122706;28;20485;-76
2020/12/27 02:42:19;;;;;;;8.87;5.77;;;-0.70;99.90;;;;;;5119906;28;20938;-77
2020/12/27 02:45:09;;;;;;;10.10;5.90;;;-0.70;99.90;;;;;;5119995;28;20454;-76
2020/12/27 02:47:37;;;;;;;8.50;4.97;;;-0.70;99.90;;;;;;5117060;28;20494;-76
2020/12/27 02:50:09;;;;;;;7.97;6.10;;;-0.70;99.90;;;;;;5115119;28;20549;-75
2020/12/27 02:52:35;;;;;;;9.40;5.87;;;-0.70;99.90;;;;;;5115502;28;20544;-75
2020/12/27 02:55:03;;;;;;;7.20;5.88;;;-0.70;99.90;;;;;;5113898;28;20435;-77
2020/12/27 02:57:30;;;;;;;6.83;5.63;;;-0.70;99.90;;;;;;5114688;28;20281;-76
2020/12/27 02:59:56;;;;;;;8.07;6.03;;;-0.70;99.90;;;;;;5114947;28;20552;-77
2020/12/27 03:02:22;;;;;;;7.83;5.80;;;-0.70;99.90;;;;;;5115102;28;20531;-77
2020/12/27 03:04:49;;;;;;;9.87;6.63;;;-0.80;99.90;;;;;;5115514;28;20535;-76
2020/12/27 03:07:15;;;;;;;8.60;6.00;;;-0.80;99.90;;;;;;5115137;28;20473;-75
2020/12/27 03:09:42;;;;;;;7.63;5.50;;;-0.90;99.90;;;;;;5115001;28;20497;-77
2020/12/27 03:12:08;;;;;;;6.43;5.37;;;-0.80;99.90;;;;;;5114338;28;20501;-76
2020/12/27 03:14:35;;;;;;;7.50;5.10;;;-0.80;99.90;;;;;;5113838;28;20972;-75
2020/12/27 03:17:01;;;;;;;10.77;6.20;;;-0.80;99.90;;;;;;5113205;28;20513;-76
2020/12/27 03:19:28;;;;;;;8.40;4.97;;;-0.80;99.90;;;;;;5113371;28;20488;-76
2020/12/27 03:21:54;;;;;;;8.60;5.93;;;-0.80;99.90;;;;;;5110447;28;20556;-76
2020/12/27 03:24:20;;;;;;;7.23;5.10;;;-0.80;99.90;;;;;;5116184;28;20505;-76
2020/12/27 03:26:47;;;;;;;8.47;5.37;;;-0.90;99.90;;;;;;5113942;28;20469;-77
2020/12/27 03:29:13;;;;;;;6.20;4.80;;;-0.90;99.90;;;;;;5114352;28;20499;-76
2020/12/27 03:31:40;;;;;;;6.53;5.83;;;-0.90;99.90;;;;;;5114574;28;20484;-75
2020/12/27 03:34:07;;;;;;;7.07;5.40;;;-0.80;99.90;;;;;;5114854;28;21019;-75
2020/12/27 03:36:33;;;;;;;6.87;5.30;;;-0.80;99.90;;;;;;5115147;28;20465;-77
2020/12/27 03:38:59;;;;;;;7.33;5.93;;;-0.80;99.90;;;;;;5113406;28;20524;-75
2020/12/27 03:41:26;;;;;;;9.00;6.00;;;-0.80;99.90;;;;;;5112268;28;20524;-74
2020/12/27 03:43:52;;;;;;;7.27;5.80;;;-0.90;99.90;;;;;;5113848;28;20513;-76
2020/12/27 03:46:43;;;;;;;9.63;6.27;;;-0.90;99.90;;;;;;5113774;28;20450;-75
2020/12/27 03:49:09;;;;;;;8.93;5.83;;;-0.90;99.90;;;;;;5106333;27;20552;-76
2020/12/27 03:51:36;;;;;;;7.47;5.70;;;-1.00;99.90;;;;;;5116331;28;20456;-76
2020/12/27 03:54:02;;;;;;;8.07;5.33;;;-1.00;99.90;;;;;;5115053;28;20493;-75
2020/12/27 03:56:28;;;;;;;9.10;6.90;;;-1.00;99.90;;;;;;5113714;28;20953;-76
2020/12/27 03:58:55;;;;;;;10.95;7.63;;;-1.10;99.90;;;;;;5114559;28;20979;-76
2020/12/27 04:01:21;;;;;;;7.93;6.53;;;-1.00;99.90;;;;;;5115635;28;20360;-77
2020/12/27 04:03:48;;;;;;;8.07;6.23;;;-1.00;99.90;;;;;;5115204;28;20563;-76
2020/12/27 04:06:15;;;;;;;8.40;6.10;;;-1.00;99.90;;;;;;5114882;28;20520;-76
2020/12/27 04:08:41;;;;;;;8.03;5.30;;;-1.00;99.90;;;;;;5117127;28;20552;-77
2020/12/27 04:11:07;;;;;;;8.43;6.20;;;-1.10;99.90;;;;;;5117497;28;20555;-77
2020/12/27 04:13:34;;;;;;;9.33;5.80;;;-1.10;99.90;;;;;;5117241;28;20461;-75
2020/12/27 04:16:02;;;;;;;10.60;6.23;;;-1.20;99.90;;;;;;5115318;28;20496;-76
2020/12/27 04:18:28;;;;;;;9.63;6.60;;;-1.20;99.90;;;;;;5115826;28;20866;-76
2020/12/27 04:20:55;;;;;;;7.23;5.53;;;-1.20;99.90;;;;;;5115349;28;20525;-76
2020/12/27 04:23:22;;;;;;;7.87;6.73;;;-1.20;99.90;;;;;;5115908;28;20525;-76
2020/12/27 04:25:48;;;;;;;7.80;5.30;;;-1.30;99.90;;;;;;5115439;28;21259;-75
2020/12/27 04:28:14;;;;;;;8.50;6.40;;;-1.30;99.90;;;;;;5116037;28;20532;-76
2020/12/27 04:30:41;;;;;;;10.03;6.30;;;-1.20;99.90;;;;;;5117224;28;20496;-75
2020/12/27 04:33:07;;;;;;;7.00;5.80;;;-1.20;99.90;;;;;;5117340;28;20437;-75
2020/12/27 04:35:33;;;;;;;10.10;6.87;;;-1.30;99.90;;;;;;5118184;28;20525;-74
2020/12/27 04:38:01;;;;;;;8.57;5.50;;;-1.30;99.90;;;;;;5118451;28;20488;-76
2020/12/27 04:40:27;;;;;;;9.07;6.83;;;-1.40;99.90;;;;;;5119327;28;20513;-75
2020/12/27 04:42:54;;;;;;;8.23;5.57;;;-1.30;99.90;;;;;;5118636;28;20481;-76
2020/12/27 04:45:20;;;;;;;8.07;5.77;;;-1.30;99.90;;;;;;5117593;28;20533;-76
2020/12/27 04:47:47;;;;;;;7.87;5.47;;;-1.40;99.90;;;;;;5117894;28;20465;-73
2020/12/27 04:50:15;;;;;;;6.93;5.97;;;-1.40;99.90;;;;;;5117481;28;20548;-75
2020/12/27 04:52:42;;;;;;;7.80;5.03;;;-1.40;99.90;;;;;;5117452;28;20496;-76
2020/12/27 04:55:09;;;;;;;6.73;5.10;;;-1.40;99.90;;;;;;5117724;28;20451;-75
2020/12/27 04:57:42;;;;;;;6.83;5.30;;;-1.40;99.90;;;;;;5116562;28;20896;-75
2020/12/27 05:00:08;;;;;;;8.00;5.60;;;-1.40;99.90;;;;;;5115150;28;20500;-76
2020/12/27 05:02:34;;;;;;;6.80;5.60;;;-1.50;99.90;;;;;;5115594;28;20940;-76
2020/12/27 05:05:02;;;;;;;7.57;4.90;;;-1.60;99.90;;;;;;5117497;28;20443;-76
2020/12/27 05:07:28;;;;;;;8.20;5.97;;;-1.60;99.90;;;;;;5114699;28;20846;-77
2020/12/27 05:09:55;;;;;;;10.97;6.43;;;-1.60;99.90;;;;;;5115774;28;20469;-76
2020/12/27 05:12:22;;;;;;;6.30;5.27;;;-1.60;99.90;;;;;;5115722;28;20464;-75
2020/12/27 05:14:49;;;;;;;8.50;5.30;;;-1.50;99.90;;;;;;5115424;28;20544;-76
2020/12/27 05:17:15;;;;;;;8.50;6.50;;;-1.50;99.90;;;;;;5114625;28;20530;-76
2020/12/27 05:19:42;;;;;;;9.70;6.77;;;-1.50;99.90;;;;;;5117170;28;20500;-76
2020/12/27 05:22:10;;;;;;;7.10;5.03;;;-1.40;99.90;;;;;;5114958;28;20447;-76
2020/12/27 05:24:38;;;;;;;8.37;5.53;;;-1.50;99.90;;;;;;5115631;28;20473;-75
2020/12/27 05:27:07;;;;;;;7.30;5.53;;;-1.50;99.90;;;;;;5115142;28;20537;-75
2020/12/27 05:29:35;;;;;;;8.40;5.67;;;-1.50;99.90;;;;;;5115880;28;20548;-76
2020/12/27 05:32:02;;;;;;;7.37;5.40;;;-1.40;99.90;;;;;;5116316;28;20516;-76
2020/12/27 05:34:29;;;;;;;7.67;5.40;;;-1.40;99.90;;;;;;5116969;28;20819;-76
2020/12/27 05:36:57;;;;;;;10.40;6.53;;;-1.30;99.90;;;;;;5115502;28;20477;-76
2020/12/27 05:39:23;;;;;;;8.20;5.43;;;-1.30;99.90;;;;;;5116325;28;20588;-76
2020/12/27 05:41:50;;;;;;;10.10;5.30;;;-1.20;99.90;;;;;;5114600;28;20532;-75
2020/12/27 05:44:19;;;;;;;8.20;5.90;;;-1.20;99.90;;;;;;5112869;28;20481;-74
2020/12/27 05:46:47;;;;;;;7.57;5.30;;;-1.10;99.90;;;;;;5110783;28;20445;-76
2020/12/27 05:49:13;;;;;;;6.37;5.70;;;-1.20;99.90;;;;;;5111179;28;20573;-75
2020/12/27 05:51:49;;;;;;;8.27;5.33;;;-1.20;99.90;;;;;;5111562;28;20528;-74
2020/12/27 05:54:31;;;;;;;9.30;5.50;;;-1.30;99.90;;;;;;5112904;28;20974;-77
2020/12/27 05:56:59;;;;;;;7.23;6.00;;;-1.30;99.90;;;;;;5112915;28;20827;-76
2020/12/27 05:59:30;;;;;;;8.93;6.77;;;-1.30;99.90;;;;;;5113460;28;20556;-74
2020/12/27 06:01:59;;;;;;;8.83;4.97;;;-1.30;99.90;;;;;;5113711;28;20480;-75
2020/12/27 06:05:06;;;;;;;9.53;5.73;;;-1.30;99.90;;;;;;5113565;28;20537;-74
2020/12/27 06:07:34;;;;;;;7.43;5.47;;;-1.20;99.90;;;;;;5113013;28;20512;-76
2020/12/27 06:10:11;;;;;;;9.80;6.03;;;-1.20;99.90;;;;;;5112602;28;20465;-76
2020/12/27 06:12:47;;;;;;;7.70;6.30;;;-1.30;99.90;;;;;;5112770;28;20445;-75
2020/12/27 06:15:25;;;;;;;7.43;6.13;;;-1.30;99.90;;;;;;5112932;28;21012;-74
2020/12/27 06:18:15;;;;;;;7.75;6.40;;;-1.20;99.90;;;;;;5112147;28;20438;-74
2020/12/27 06:20:42;;;;;;;8.90;6.23;;;-1.20;99.90;;;;;;5113218;28;20248;-76
2020/12/27 06:23:09;;;;;;;8.07;6.37;;;-1.20;99.90;;;;;;5113442;28;20487;-76
2020/12/27 06:25:38;;;;;;;8.40;6.37;;;-1.20;99.90;;;;;;5112900;28;20447;-76
2020/12/27 06:28:05;;;;;;;8.70;6.20;;;-1.20;99.90;;;;;;5113195;28;20530;-76
2020/12/27 06:30:34;;;;;;;8.03;5.73;;;-1.20;99.90;;;;;;5113037;28;20536;-75
2020/12/27 06:33:06;;;;;;;8.57;6.43;;;-1.20;99.90;;;;;;5112304;28;20853;-76
2020/12/27 06:35:35;;;;;;;7.70;6.00;;;-1.10;99.90;;;;;;5112520;28;20489;-78
2020/12/27 06:38:12;;;;;;;8.70;5.73;;;-1.10;99.90;;;;;;5113300;28;20498;-78
2020/12/27 06:40:39;;;;;;;7.63;5.20;;;-1.10;99.90;;;;;;5112771;28;20582;-76
2020/12/27 06:43:23;;;;;;;7.67;6.37;;;-1.20;99.90;;;;;;5113737;28;20865;-77
2020/12/27 06:45:50;;;;;;;9.67;6.80;;;-1.20;99.90;;;;;;5114672;28;20526;-77
2020/12/27 06:48:32;;;;;;;7.70;6.40;;;-1.20;99.90;;;;;;5113784;28;20520;-76
2020/12/27 06:50:59;;;;;;;8.07;5.90;;;-1.20;99.90;;;;;;5112152;27;20536;-77
2020/12/27 06:53:38;;;;;;;7.43;6.40;;;-1.30;99.90;;;;;;5114504;28;20578;-77
2020/12/27 06:56:05;;;;;;;7.67;6.60;;;-1.40;99.90;;;;;;5113263;28;20841;-75
2020/12/27 06:58:31;;;;;;;6.70;5.40;;;-1.30;99.90;;;;;;5114629;28;20471;-77
2020/12/27 07:01:11;;;;;;;9.43;5.87;;;-1.30;99.90;;;;;;5115496;28;20532;-78
2020/12/27 07:03:37;;;;;;;8.93;6.40;;;-1.30;99.90;;;;;;5116481;28;20508;-75
2020/12/27 07:06:24;;;;;;;7.67;6.27;;;-1.30;99.90;;;;;;5118259;28;20524;-76
2020/12/27 07:08:55;;;;;;;6.97;4.70;;;-1.30;99.90;;;;;;5122677;28;20525;-77
2020/12/27 07:11:23;;;;;;;8.27;6.40;;;-1.20;99.90;;;;;;5119915;28;20457;-76
2020/12/27 07:13:54;;;;;;;7.37;6.10;;;-1.10;99.90;;;;;;5121295;28;20513;-74
2020/12/27 07:16:27;;;;;;;9.40;6.10;;;-1.10;99.90;;;;;;5119814;28;20481;-76
2020/12/27 07:18:59;;;;;;;8.40;5.83;;;-1.10;99.90;;;;;;5117159;28;20521;-77
2020/12/27 07:21:27;;;;;;;6.83;5.80;;;-1.10;99.90;;;;;;5115130;28;20437;-77
2020/12/27 07:24:19;;;;;;;9.30;6.93;;;-1.10;99.90;;;;;;5112570;28;20473;-76
2020/12/27 07:26:47;;;;;;;9.70;6.60;;;-1.10;99.90;;;;;;5109973;28;20451;-77
2020/12/27 07:29:18;;;;;;;9.23;6.30;;;-1.00;99.90;;;;;;5112165;28;20469;-78
2020/12/27 07:31:45;;;;;;;7.93;6.30;;;-1.00;99.90;;;;;;5111137;28;20455;-77
2020/12/27 07:34:14;;;;;;;8.00;6.67;;;-0.90;99.90;;;;;;5110153;28;20445;-75
2020/12/27 07:36:42;;;;;;;9.63;6.10;;;-0.90;99.90;;;;;;5109475;28;20445;-76
2020/12/27 07:39:10;;;;;;;9.27;5.77;;;-0.90;99.90;;;;;;5109765;28;20461;-76
2020/12/27 07:41:37;;;;;;;10.57;5.50;;;-0.90;99.90;;;;;;5109446;28;20436;-75
2020/12/27 07:44:12;;;;;;;8.87;6.03;;;-0.90;99.90;;;;;;5110686;28;20480;-74
2020/12/27 07:46:39;;;;;;;6.90;5.70;;;-0.80;99.90;;;;;;5108077;28;20465;-76
2020/12/27 07:49:08;;;;;;;8.30;6.27;;;-0.70;99.90;;;;;;5109376;28;20546;-76
2020/12/27 07:51:35;;;;;;;6.50;5.37;;;-0.70;99.90;;;;;;5109867;28;20456;-75
2020/12/27 07:54:03;;;;;;;8.37;5.20;;;-0.60;99.90;;;;;;5109433;28;20438;-76
2020/12/27 07:56:30;;;;;;;6.87;5.10;;;-0.60;99.90;;;;;;5108764;28;20543;-76
2020/12/27 07:58:58;;;;;;;6.87;5.17;;;-0.50;99.90;;;;;;5109725;28;20544;-75
2020/12/27 08:01:25;;;;;;;6.80;5.13;;;-0.40;99.90;;;;;;5109673;28;21214;-76
2020/12/27 08:03:53;;;;;;;7.97;5.27;;;-0.40;99.90;;;;;;5109452;28;20473;-76
2020/12/27 08:06:19;;;;;;;8.67;5.10;;;-0.30;99.90;;;;;;5108512;28;20480;-76
2020/12/27 08:08:47;;;;;;;7.87;5.40;;;-0.10;99.90;;;;;;5108927;28;20508;-76
2020/12/27 08:11:22;;;;;;;6.70;5.53;;;-0.10;99.90;;;;;;5108869;28;20452;-76
2020/12/27 08:13:52;;;;;;;6.17;5.13;;;0.00;99.90;;;;;;5108667;28;20441;-75
2020/12/27 08:16:18;;;;;;;6.73;5.50;;;0.00;99.90;;;;;;5108725;28;20556;-77
2020/12/27 08:18:45;;;;;;;7.67;5.27;;;0.00;99.90;;;;;;5108599;28;20826;-76
2020/12/27 08:21:17;;;;;;;9.03;5.97;;;0.00;99.90;;;;;;5108151;28;20979;-76
2020/12/27 08:23:45;;;;;;;7.20;5.57;;;0.10;99.90;;;;;;5108222;28;20477;-77
2020/12/27 08:26:12;;;;;;;7.90;6.00;;;0.10;99.90;;;;;;5107437;28;20456;-75
2020/12/27 08:28:40;;;;;;;7.23;5.70;;;0.20;99.90;;;;;;5108165;28;20569;-76
2020/12/27 08:31:07;;;;;;;6.63;5.50;;;0.20;99.90;;;;;;5108559;28;20471;-76
2020/12/27 08:33:33;;;;;;;7.30;5.97;;;0.20;99.90;;;;;;5108593;28;20473;-75
2020/12/27 08:36:00;;;;;;;9.97;5.80;;;0.20;99.90;;;;;;5107723;28;20469;-75
2020/12/27 08:38:34;;;;;;;8.07;6.17;;;0.30;99.90;;;;;;5110531;28;20497;-77
2020/12/27 08:41:07;;;;;;;8.90;6.13;;;0.30;99.90;;;;;;5112100;28;20834;-76
2020/12/27 08:43:49;;;;;;;7.10;5.63;;;0.40;99.90;;;;;;5111752;28;20476;-77
2020/12/27 08:46:21;;;;;;;6.30;5.13;;;0.50;99.90;;;;;;5110502;28;20445;-77
2020/12/27 08:48:53;;;;;;;7.93;5.10;;;0.50;99.90;;;;;;5111619;28;20462;-77
2020/12/27 08:51:22;;;;;;;8.40;5.50;;;0.50;99.90;;;;;;5111819;28;20470;-77
2020/12/27 08:53:48;;;;;;;7.10;5.20;;;0.60;99.90;;;;;;5111806;28;20441;-76
2020/12/27 08:56:15;;;;;;;8.43;5.23;;;0.60;99.90;;;;;;5111042;28;20442;-75
2020/12/27 08:58:54;;;;;;;6.20;5.00;;;0.70;99.90;;;;;;5111333;28;20495;-77
2020/12/27 09:01:22;;;;;;;6.40;4.87;;;0.70;99.90;;;;;;5111621;28;20536;-77
2020/12/27 09:03:49;;;;;;;7.50;4.83;;;0.80;99.90;;;;;;5111260;28;20469;-76
2020/12/27 09:06:15;;;;;;;8.70;5.60;;;0.80;99.90;;;;;;5110927;28;20449;-76
2020/12/27 09:08:42;;;;;;;5.33;4.73;;;0.90;99.90;;;;;;5111268;28;20469;-77
2020/12/27 09:11:08;;;;;;;5.23;4.73;;;0.90;99.90;;;;;;5111131;28;20475;-77
2020/12/27 09:13:39;;;;;;;8.63;4.90;;;0.90;99.90;;;;;;5111360;28;20441;-76
2020/12/27 09:16:06;;;;;;;8.13;4.57;;;1.00;99.90;;;;;;5110374;28;20453;-77
2020/12/27 09:18:34;;;;;;;6.97;4.57;;;1.10;99.90;;;;;;5110909;28;20556;-76
2020/12/27 09:21:02;;;;;;;6.37;4.97;;;1.20;99.90;;;;;;5111289;28;20495;-77
2020/12/27 09:23:29;;;;;;;6.63;4.57;;;1.20;99.90;;;;;;5110934;28;21099;-74
2020/12/27 09:26:05;;;;;;;6.47;4.10;;;1.30;99.90;;;;;;5110239;28;20459;-75
2020/12/27 09:28:33;;;;;;;5.53;4.53;;;1.40;99.90;;;;;;5110930;28;20453;-74
2020/12/27 09:31:01;;;;;;;5.90;4.47;;;1.40;99.90;;;;;;5110718;28;20492;-75
2020/12/27 09:33:29;;;;;;;8.63;5.40;;;1.50;99.90;;;;;;5111013;28;20433;-75
2020/12/27 09:35:57;;;;;;;5.43;4.43;;;1.60;99.90;;;;;;5110058;28;20532;-73
2020/12/27 09:38:25;;;;;;;7.60;3.80;;;1.80;99.90;;;;;;5110586;28;20552;-74
2020/12/27 09:41:06;;;;;;;5.90;3.83;;;1.80;99.90;;;;;;5111269;28;20955;-74
2020/12/27 09:43:45;;;;;;;8.93;4.90;;;1.90;99.90;;;;;;5112024;28;20473;-75
2020/12/27 09:46:11;;;;;;;7.40;4.37;;;2.00;99.90;;;;;;5112657;28;20491;-76
2020/12/27 09:48:38;;;;;;;7.27;4.10;;;2.10;99.90;;;;;;5112754;28;20475;-75
2020/12/27 09:51:51;;;;;;;7.60;5.37;;;2.20;99.90;;;;;;5112073;28;20532;-76
2020/12/27 09:54:18;;;;;;;7.90;4.80;;;2.40;99.90;;;;;;5088742;28;20441;-76
2020/12/27 09:56:45;;;;;;;7.70;4.93;;;2.60;99.90;;;;;;5111583;28;20552;-75
2020/12/27 09:59:11;;;;;;;5.03;3.90;;;2.60;99.90;;;;;;5110463;28;20492;-76
2020/12/27 10:01:38;;;;;;;5.50;4.23;;;2.60;99.90;;;;;;5111234;28;20494;-77
2020/12/27 10:04:05;;;;;;;7.83;4.17;;;2.70;99.90;;;;;;5111034;28;21086;-71
2020/12/27 10:06:31;;;;;;;5.00;4.00;;;2.70;99.90;;;;;;5110612;28;20524;-73
2020/12/27 10:08:58;;;;;;;4.93;3.53;;;2.60;99.90;;;;;;5110355;28;20473;-72
2020/12/27 10:11:25;;;;;;;4.57;3.70;;;2.70;99.90;;;;;;5110192;28;20449;-69
2020/12/27 10:13:51;;;;;;;4.50;3.83;;;2.60;99.90;;;;;;5110454;28;20863;-70
2020/12/27 10:16:19;;;;;;;4.77;4.30;;;2.60;99.90;;;;;;5109604;28;20457;-72
2020/12/27 10:18:45;;;;;;;5.27;3.80;;;2.50;99.90;;;;;;5109995;27;20469;-73
2020/12/27 10:21:13;;;;;;;5.70;4.20;;;2.40;99.90;;;;;;5110169;28;20953;-73
2020/12/27 10:23:39;;;;;;;5.53;4.40;;;2.50;99.90;;;;;;5109687;28;20526;-73
2020/12/27 10:26:06;;;;;;;5.80;4.37;;;2.50;99.90;;;;;;5109415;28;20952;-72
2020/12/27 10:28:33;;;;;;;5.83;4.17;;;2.50;99.90;;;;;;5110170;28;20476;-71
2020/12/27 10:31:00;;;;;;;5.90;4.20;;;2.50;99.90;;;;;;5110171;28;20441;-73
2020/12/27 10:33:27;;;;;;;4.90;4.40;;;2.60;99.90;;;;;;5110206;28;20498;-74
2020/12/27 10:35:53;;;;;;;6.23;4.87;;;2.70;99.90;;;;;;5109146;28;20926;-70
2020/12/27 10:38:20;;;;;;;5.43;4.93;;;2.80;99.90;;;;;;5109873;28;20666;-72
2020/12/27 10:40:46;;;;;;;7.57;5.40;;;2.80;99.90;;;;;;5109990;28;20446;-74
2020/12/27 10:43:13;;;;;;;6.30;5.67;;;2.90;99.90;;;;;;5109444;28;20556;-74
2020/12/27 10:45:39;;;;;;;6.73;5.70;;;2.90;99.90;;;;;;5105928;28;20450;-72
2020/12/27 10:48:06;;;;;;;7.40;6.53;;;3.00;99.90;;;;;;5104073;28;20472;-73
2020/12/27 10:50:32;;;;;;;8.43;6.13;;;2.90;99.90;;;;;;5107055;28;20481;-75
2020/12/27 10:52:58;;;;;;;8.33;6.27;;;2.90;99.90;;;;;;5102955;28;20445;-74
2020/12/27 10:55:26;;;;;;;8.57;7.67;;;2.90;99.90;;;;;;5105031;28;20459;-75
2020/12/27 10:57:52;;;;;;;8.00;6.67;;;2.90;99.90;;;;;;5102513;28;20456;-76
2020/12/27 11:00:18;;;;;;;9.00;5.90;;;2.90;99.90;;;;;;5103972;28;20556;-76
2020/12/27 11:02:45;;;;;;;7.87;6.70;;;2.90;99.90;;;;;;5109396;28;20826;-74
2020/12/27 11:05:11;;;;;;;7.70;6.43;;;2.90;99.90;;;;;;5109826;28;20572;-75
2020/12/27 11:07:38;;;;;;;7.77;6.50;;;2.80;99.90;;;;;;5105310;28;20528;-75
2020/12/27 11:10:04;;;;;;;9.20;7.10;;;2.80;99.90;;;;;;5101667;28;20458;-74
2020/12/27 11:12:31;;;;;;;7.87;5.77;;;2.90;99.90;;;;;;5098009;28;20526;-75
2020/12/27 11:14:58;;;;;;;7.90;5.90;;;3.00;99.90;;;;;;5106839;28;20451;-75
2020/12/27 11:17:25;;;;;;;6.13;5.53;;;3.10;99.90;;;;;;5104000;28;20506;-73
2020/12/27 11:19:51;;;;;;;7.93;5.93;;;3.20;99.90;;;;;;5101700;28;20465;-74
2020/12/27 11:22:18;;;;;;;8.10;6.53;;;3.20;99.90;;;;;;5107967;28;20524;-74
2020/12/27 11:24:45;;;;;;;8.77;5.70;;;3.20;99.90;;;;;;5107326;28;20488;-75
2020/12/27 11:27:11;;;;;;;9.67;6.57;;;3.20;99.90;;;;;;5104430;28;20517;-74
2020/12/27 11:29:39;;;;;;;6.47;5.80;;;3.20;99.90;;;;;;5107699;28;20509;-75
2020/12/27 11:32:05;;;;;;;7.83;6.57;;;3.20;99.90;;;;;;5108259;28;20502;-75
2020/12/27 11:34:32;;;;;;;8.60;6.07;;;3.30;99.90;;;;;;5101160;28;20462;-75
2020/12/27 11:36:58;;;;;;;9.20;6.67;;;3.20;99.90;;;;;;5109013;28;20532;-75
2020/12/27 11:39:24;;;;;;;6.60;5.50;;;3.20;99.90;;;;;;5109744;28;20465;-74
2020/12/27 11:41:51;;;;;;;6.13;5.07;;;3.20;99.90;;;;;;5107760;28;20490;-76
2020/12/27 11:44:17;;;;;;;5.87;4.90;;;3.10;99.90;;;;;;5109149;28;20505;-75
2020/12/27 11:46:45;;;;;;;6.10;5.00;;;3.10;99.90;;;;;;5105981;28;20469;-75
2020/12/27 11:49:11;;;;;;;6.70;5.17;;;3.20;99.90;;;;;;5105586;28;20469;-75
2020/12/27 11:51:38;;;;;;;6.57;5.20;;;3.30;99.90;;;;;;5107383;28;20441;-75
2020/12/27 11:54:04;;;;;;;5.90;4.30;;;3.30;99.90;;;;;;5101411;28;20614;-74
2020/12/27 11:56:31;;;;;;;7.00;5.60;;;3.40;99.90;;;;;;5107359;28;20465;-73
2020/12/27 11:58:58;;;;;;;6.63;5.70;;;3.40;99.90;;;;;;5108172;28;20461;-74
2020/12/27 12:01:24;;;;;;;7.00;5.90;;;3.50;99.90;;;;;;5107356;28;20449;-75
2020/12/27 12:03:51;;;;;;;8.53;5.70;;;3.50;99.90;;;;;;5107317;28;20470;-74
2020/12/27 12:06:22;;;;;;;7.93;5.77;;;3.70;99.90;;;;;;5104846;28;20540;-75
2020/12/27 12:08:49;;;;;;;6.80;5.30;;;3.80;99.90;;;;;;5105134;28;20841;-77
2020/12/27 12:11:16;;;;;;;6.80;5.20;;;3.80;99.90;;;;;;5104506;28;20456;-74
2020/12/27 12:13:42;;;;;;;8.40;4.93;;;3.80;99.90;;;;;;5112919;28;20533;-76
2020/12/27 12:16:08;;;;;;;5.10;4.53;;;3.80;99.90;;;;;;5110664;28;20564;-76
2020/12/27 12:18:35;;;;;;;6.90;5.40;;;3.70;99.90;;;;;;5111685;28;20464;-75
2020/12/27 12:21:02;;;;;;;7.00;4.60;;;3.70;99.90;;;;;;5112362;28;20441;-76
2020/12/27 12:23:28;;;;;;;5.70;4.80;;;3.70;99.90;;;;;;5104028;28;20564;-75
2020/12/27 12:25:55;;;;;;;9.53;5.23;;;3.70;99.90;;;;;;5099363;28;21027;-76
2020/12/27 12:28:21;;;;;;;7.93;4.80;;;3.60;99.90;;;;;;5092087;28;20442;-74
2020/12/27 12:30:48;;;;;;;7.60;5.30;;;3.60;99.90;;;;;;5112346;28;20528;-75
2020/12/27 12:33:14;;;;;;;5.63;4.80;;;3.60;99.90;;;;;;5112591;28;20947;-73
2020/12/27 12:35:42;;;;;;;4.87;4.37;;;3.60;99.90;;;;;;5111717;28;20543;-73
2020/12/27 12:38:09;;;;;;;5.60;4.50;;;3.60;99.90;;;;;;5111755;28;20441;-74
2020/12/27 12:40:36;;;;;;;6.13;4.83;;;3.60;99.90;;;;;;5110672;28;20476;-74
2020/12/27 12:43:03;;;;;;;5.53;5.00;;;3.70;99.90;;;;;;5106974;28;20976;-74
2020/12/27 12:45:29;;;;;;;4.37;3.83;;;3.70;99.90;;;;;;5100547;28;20442;-73
2020/12/27 12:47:56;;;;;;;6.57;4.40;;;3.70;99.90;;;;;;5098362;28;21200;-74
2020/12/27 12:50:22;;;;;;;8.27;4.70;;;3.80;99.90;;;;;;5091540;28;20501;-73
2020/12/27 12:52:49;;;;;;;5.47;4.23;;;3.80;99.90;;;;;;5091333;28;20442;-73
2020/12/27 12:55:16;;;;;;;6.10;4.80;;;3.80;99.90;;;;;;5108110;28;20953;-74